NEODyS-2

Near Earth Objects - Dynamic Site
NEODyS ∴ Observatories ∴ Site 691 ∴ Obs & residuals
Contact »
691  ▹ 
OBSERVATIONS AND RESIDUALS

691-Steward Observatory, Kitt Peak-Spacewatch

Detections | Residuals | Detections & Residuals

[1-200] [201-400] [401-600] [601-800] [801-1000] [1001-1200] [1201-1400] [1401-1600] [1601-1800] [1801-2000] [2001-2200] [2201-2400] [2401-2600] [2601-2800] [2801-3000] [3001-3200] [3201-3400] [3401-3600] [3601-3800] [3801-4000] [4001-4200] [4201-4400] [4401-4600] [4601-4800] [4801-5000] [5001-5200] [5201-5400] [5401-5600] [5601-5800] [5801-6000] [6001-6200] [6201-6400] [6401-6600] [6601-6800] [6801-7000] [7001-7200] [7201-7400] [7401-7600] [7601-7800] [7801-8000] [8001-8200] [8201-8400] [8401-8600] [8601-8800] [8801-9000] [9001-9200] [9201-9400] [9401-9600] [9601-9800] [9801-10000] [10001-10200] [10201-10400] [10401-10600] [10601-10800] [10801-11000] [11001-11200] [11201-11400] [11401-11600] [11601-11800] [11801-12000] [12001-12200] [12201-12400] [12401-12600] [12601-12800] [12801-13000] [13001-13200] [13201-13400] [13401-13600] [13601-13800] [13801-14000] [14001-14200] [14201-14400] [14401-14600] [14601-14800] [14801-15000] [15001-15200] [15201-15400] [15401-15600] [15601-15800] [15801-16000] [16001-16200] [16201-16400] [16401-16600] [16601-16800] [16801-17000] [17001-17200] [17201-17400] [17401-17600] [17601-17800] [17801-18000] [18001-18200] [18201-18400] [18401-18600] [18601-18800] [18801-19000] [19001-19200] [19201-19400] [19401-19600] [19601-19800] [19801-20000] [20001-20200] [20201-20400] [20401-20600] [20601-20800] [20801-21000] [21001-21200] [21201-21400] [21401-21600] [21601-21800] [21801-22000] [22001-22200] [22201-22400] [22401-22600] [22601-22800] [22801-23000] [23001-23200] [23201-23400] [23401-23600] [23601-23800] [23801-24000] [24001-24200] [24201-24400] [24401-24600] [24601-24800] [24801-25000] [25001-25200] [25201-25400] [25401-25600] [25601-25800] [25801-26000] [26001-26200] [26201-26400] [26401-26600] [26601-26800] [26801-27000] [27001-27200] [27201-27400] [27401-27600] [27601-27800] [27801-28000] [28001-28200] [28201-28400] [28401-28600] [28601-28800] [28801-29000] [29001-29200] [29201-29400] [29401-29600] [29601-29800] [29801-30000] [30001-30200] [30201-30400] [30401-30600] [30601-30800] [30801-31000] [31001-31200] [31201-31400] [31401-31600] [31601-31800] [31801-32000] [32001-32200] [32201-32400] [32401-32600] [32601-32800] [32801-33000] [33001-33200] [33201-33400] [33401-33600] [33601-33800] [33801-34000] [34001-34200] [34201-34400] [34401-34600] [34601-34800] [34801-35000] [35001-35200] [35201-35400] [35401-35600] [35601-35800] [35801-36000] [36001-36200] [36201-36400] [36401-36600] [36601-36800] [36801-37000] [37001-37200] [37201-37400] [37401-37600] [37601-37800] [37801-38000] [38001-38200] [38201-38400] [38401-38600] [38601-38800] [38801-39000] [39001-39200] [39201-39400] [39401-39600] [39601-39800] [39801-40000] [40001-40200] [40201-40400] [40401-40600] [40601-40800] [40801-41000] [41001-41200] [41201-41400] [41401-41600] [41601-41800] [41801-42000] [42001-42200] [42201-42400] [42401-42600] [42601-42800] [42801-43000] [43001-43200] [43201-43400] [43401-43600] [43601-43800] [43801-44000] [44001-44200] [44201-44400] [44401-44600] [44601-44800] [44801-45000] [45001-45200] [45201-45400] [45401-45600] [45601-45800] [45801-46000] [46001-46200] [46201-46400] [46401-46600] [46601-46800] [46801-47000] [47001-47200] [47201-47400] [47401-47600] [47601-47800] [47801-48000] [48001-48200] [48201-48400] [48401-48600] [48601-48800] [48801-49000] [49001-49200] [49201-49400] [49401-49600] [49601-49800] [49801-50000] [50001-50200] [50201-50388]

Designation T Tech N Date Right Ascension Declination Apparent Magnitude Star Catalog Site code χ Used A Used M
yr-mo-day precision hr:min:sec precision rms F bias residual deg min sec precision rms F bias residual mag/col rms residual
2019GQ O C K 2019-04-09.16351 1.000E-05 10:12:40.250 1.500E-01 0.500 F 0.091 0.153 -18° 49' 09.50" 1.000E-01 0.500 F 0.000 -0.583 19.1 R 0.70 0.20 o 691 1.32 Yes Yes
2019GQ O C K 2019-04-09.17193 1.000E-05 10:12:35.360 1.500E-01 0.500 F 0.091 0.058 -18° 56' 46.70" 1.000E-01 0.500 F 0.000 0.020 19.2 R 0.70 0.30 o 691 0.13 Yes Yes
2019GJ O C K 2019-04-09.17850 1.000E-05 09:15:59.530 1.500E-01 0.500 F 0.129 0.249 +06° 31' 18.30" 1.000E-01 0.500 F 0.266 0.318 20.2 R 0.70 -0.04 o 691 0.81 Yes Yes
2019GQ O C K 2019-04-09.18033 1.000E-05 10:12:30.440 1.500E-01 0.500 F 0.091 -0.196 -19° 04' 24.60" 1.000E-01 0.500 F 0.000 -0.330 19.5 R 0.70 0.61 o 691 0.84 Yes Yes
2019GJ O C K 2019-04-09.18465 1.000E-05 09:16:00.970 1.500E-01 0.500 F 0.129 0.005 +06° 30' 33.90" 1.000E-01 0.500 F 0.266 -0.550 20.0 R 0.70 -0.24 o 691 1.11 Yes Yes
2019GJ O C K 2019-04-09.18694 1.000E-05 09:16:01.530 1.500E-01 0.500 F 0.129 0.263 +06° 30' 18.10" 1.000E-01 0.500 F 0.266 -0.143 20.3 R 0.70 0.06 o 691 0.60 Yes Yes
2019GV1 O C K 2019-04-09.19428 1.000E-05 11:32:59.470 1.500E-01 0.500 F 0.266 0.193 -09° 45' 36.10" 1.000E-01 0.500 F 0.065 0.016 21.0 R 0.70 -0.29 o 691 0.39 Yes Yes
2019GV1 O C K 2019-04-09.20302 1.000E-05 11:33:00.560 1.500E-01 0.500 F 0.266 -0.407 -09° 45' 56.20" 1.000E-01 0.500 F 0.065 0.113 20.9 R 0.70 -0.39 o 691 0.85 Yes Yes
2019GV1 O C K 2019-04-09.21176 1.000E-05 11:33:01.750 1.500E-01 0.500 F 0.266 0.500 -09° 46' 16.50" 1.000E-01 0.500 F 0.065 -0.009 o 691 1.01 Yes No
2019BJ2 O C H 2019-04-09.24139 1.000E-05 12:55:22.430 1.500E-01 0.500 F 0.158 0.554 -19° 33' 12.10" 1.000E-01 0.500 F -0.200 -0.006 20.3 R 0.70 0.19 o 691 1.12 Yes Yes
2019BJ2 O C H 2019-04-09.24670 1.000E-05 12:55:21.730 1.500E-01 0.500 F 0.158 -0.688 -19° 33' 16.90" 1.000E-01 0.500 F -0.200 -0.427 19.7 R 0.70 -0.41 o 691 1.63 Yes Yes
2019BJ2 O C H 2019-04-09.25202 1.000E-05 12:55:21.140 1.500E-01 0.500 F 0.158 -0.343 -19° 33' 20.40" 1.000E-01 0.500 F -0.200 0.443 19.8 R 0.70 -0.31 o 691 1.13 Yes Yes
2019GL5 O C K 2019-04-09.25463 1.000E-05 12:30:08.720 1.500E-01 0.500 F 0.262 -0.234 -10° 56' 49.00" 1.000E-01 0.500 F 0.153 -0.015 22.1 R 0.70 0.53 o 691 0.49 Yes Yes
2004VD17 O C 2019-04-09.25463 1.000E-05 12:25:49.250 1.500E-01 0.500 F 0.012 -0.307 -10° 36' 50.70" 1.000E-01 0.500 F 0.072 -0.190 o 691 0.72 Yes No
2019GL5 O C K 2019-04-09.26659 1.000E-05 12:30:07.180 1.500E-01 0.500 F 0.262 -0.175 -10° 56' 35.00" 1.000E-01 0.500 F 0.153 0.390 21.6 R 0.70 0.03 o 691 0.89 Yes Yes
2004VD17 O C 2019-04-09.26981 1.000E-05 12:25:46.210 1.500E-01 0.500 F 0.012 -0.204 -10° 36' 30.70" 1.000E-01 0.500 F 0.072 0.077 o 691 0.44 Yes No
2019GL5 O C K 2019-04-09.27857 1.000E-05 12:30:05.650 1.500E-01 0.500 F 0.262 0.066 -10° 56' 21.90" 1.000E-01 0.500 F 0.153 -0.135 22.0 R 0.70 0.43 o 691 0.31 Yes Yes
2004VD17 O C 2019-04-09.28340 1.000E-05 12:25:43.480 1.500E-01 0.500 F 0.012 -0.205 -10° 36' 13.30" 1.000E-01 0.500 F 0.072 -0.231 o 691 0.62 Yes No
2019FE O C H 2019-04-09.29373 1.000E-05 13:58:30.270 1.500E-01 0.500 F 0.112 -0.268 -03° 28' 10.50" 1.000E-01 0.500 F 0.258 -0.352 21.4 R 0.70 0.84 o 691 0.89 Yes Yes
2019GR O C K 2019-04-09.29543 1.000E-05 13:11:24.350 1.500E-01 0.500 F 0.156 -0.005 +06° 24' 46.90" 1.000E-01 0.500 F 0.349 -0.138 19.2 R 0.70 0.77 o 691 0.28 Yes Yes
2019FE O C H 2019-04-09.29904 1.000E-05 13:58:29.940 1.500E-01 0.500 F 0.112 -0.686 -03° 28' 09.70" 1.000E-01 0.500 F 0.258 -0.409 21.2 R 0.70 0.64 o 691 1.60 Yes Yes
2019GR O C K 2019-04-09.30071 1.000E-05 13:11:31.360 1.500E-01 0.500 F 0.156 0.393 +06° 23' 59.30" 1.000E-01 0.500 F 0.349 -0.120 19.2 R 0.70 0.77 o 691 0.85 Yes Yes
2019FE O C H 2019-04-09.30433 1.000E-05 13:58:29.750 1.500E-01 0.500 F 0.112 0.990 -03° 28' 08.00" 1.000E-01 0.500 F 0.258 0.435 20.9 R 0.70 0.34 o 691 2.17 Yes Yes
2019GR O C K 2019-04-09.30599 1.000E-05 13:11:38.310 1.500E-01 0.500 F 0.156 -0.066 +06° 23' 11.50" 1.000E-01 0.500 F 0.349 -0.269 19.0 R 0.70 0.57 o 691 0.56 Yes Yes
2019FC3 O C K 2019-04-09.30983 1.000E-05 15:22:51.130 1.500E-01 0.500 F 0.329 -0.129 -23° 53' 59.50" 1.000E-01 0.500 F 0.302 -0.002 19.0 R 0.70 -0.42 o 691 0.26 Yes Yes
2019FC3 O C K 2019-04-09.31310 1.000E-05 15:22:53.180 1.500E-01 0.500 F 0.329 0.048 -23° 54' 14.50" 1.000E-01 0.500 F 0.302 -0.066 19.3 R 0.70 -0.12 o 691 0.16 Yes Yes
2019FC3 O C K 2019-04-09.31636 1.000E-05 15:22:55.200 1.500E-01 0.500 F 0.329 -0.103 -23° 54' 29.60" 1.000E-01 0.500 F 0.302 -0.279 19.8 R 0.70 0.38 o 691 0.60 Yes Yes
2019GQ5 O C K 2019-04-09.40083 1.000E-05 14:40:57.720 1.500E-01 0.500 F 0.177 0.192 +00° 59' 45.40" 1.000E-01 0.500 F 0.291 -0.184 20.5 R 0.70 0.57 o 691 0.54 Yes Yes
2019GQ5 O C K 2019-04-09.41989 1.000E-05 14:41:11.960 1.500E-01 0.500 F 0.177 -0.452 +01° 01' 43.80" 1.000E-01 0.500 F 0.291 0.361 20.3 R 0.70 0.37 o 691 1.16 Yes Yes
2019GN O C K 2019-04-09.43088 1.000E-05 13:22:40.600 1.500E-01 0.500 F 0.369 0.224 -08° 30' 12.40" 1.000E-01 0.500 F 0.042 0.031 19.1 R 0.70 0.09 o 691 0.47 Yes Yes
2019GD O C K 2019-04-09.43638 1.000E-05 13:49:08.440 1.500E-01 0.500 F 0.232 -0.151 +25° 55' 56.70" 1.000E-01 0.500 F 0.084 0.379 19.7 R 0.70 0.06 o 691 0.83 Yes Yes
2019GN O C K 2019-04-09.43923 1.000E-05 13:22:43.720 1.500E-01 0.500 F 0.369 0.129 -08° 31' 07.60" 1.000E-01 0.500 F 0.042 0.007 19.3 R 0.70 0.29 o 691 0.27 Yes Yes
2019GD O C K 2019-04-09.44450 1.000E-05 13:49:10.970 1.500E-01 0.500 F 0.232 0.142 +25° 55' 33.20" 1.000E-01 0.500 F 0.084 0.050 19.4 R 0.70 -0.24 o 691 0.30 Yes Yes
2019GN O C K 2019-04-09.44735 1.000E-05 13:22:46.810 1.500E-01 0.500 F 0.369 0.136 -08° 32' 00.90" 1.000E-01 0.500 F 0.042 0.507 18.6 R 0.70 -0.40 o 691 1.07 Yes Yes
2019GD O C K 2019-04-09.45260 1.000E-05 13:49:13.480 1.500E-01 0.500 F 0.232 0.141 +25° 55' 10.30" 1.000E-01 0.500 F 0.084 0.334 19.2 R 0.70 -0.44 o 691 0.73 Yes Yes
2012XO134 O C 2019-04-09.49457 1.000E-05 13:27:20.790 1.500E-01 0.500 F 0.125 -0.223 +13° 51' 46.70" 1.000E-01 0.500 F 0.113 0.213 20.0 V 0.70 0.60 o 691 0.63 Yes Yes
2012XO134 O C 2019-04-09.49904 1.000E-05 13:27:19.070 1.500E-01 0.500 F 0.125 -0.005 +13° 52' 26.20" 1.000E-01 0.500 F 0.113 -0.076 20.2 V 0.70 0.80 o 691 0.15 Yes Yes
2012XO134 O C 2019-04-09.50349 1.000E-05 13:27:17.330 1.500E-01 0.500 F 0.158 -0.280 +13° 53' 06.00" 1.000E-01 0.500 F 0.128 0.082 20.0 V 0.70 0.60 o 691 0.59 Yes Yes
2019GO20 O C K 2019-04-10.20052 1.000E-05 12:39:03.990 1.500E-01 0.500 F 0.300 -0.537 -15° 59' 15.60" 1.000E-01 0.500 F 0.297 -0.060 o 691 1.09 Yes No
2019GO20 O C K 2019-04-10.20405 1.000E-05 12:39:03.590 1.500E-01 0.500 F 0.300 -0.482 -15° 59' 11.20" 1.000E-01 0.500 F 0.297 -0.082 o 691 0.99 Yes No
2019GO20 O C K 2019-04-10.20756 1.000E-05 12:39:03.210 1.500E-01 0.500 F 0.300 -0.171 -15° 59' 06.60" 1.000E-01 0.500 F 0.297 0.120 o 691 0.42 Yes No
2019GD O C K 2019-04-10.22246 1.000E-05 13:53:37.880 1.500E-01 0.500 F 0.204 -0.266 +25° 18' 51.90" 1.000E-01 0.500 F 0.094 0.148 19.8 R 0.70 0.19 o 691 0.62 Yes Yes
2019GD O C K 2019-04-10.22685 1.000E-05 13:53:39.270 1.500E-01 0.500 F 0.204 -0.101 +25° 18' 39.70" 1.000E-01 0.500 F 0.094 0.207 19.7 R 0.70 0.09 o 691 0.47 Yes Yes
2019GD O C K 2019-04-10.23116 1.000E-05 13:53:40.620 1.500E-01 0.500 F 0.204 -0.108 +25° 18' 27.50" 1.000E-01 0.500 F 0.094 0.063 19.9 R 0.70 0.29 o 691 0.25 Yes Yes
2019GO4 O C K 2019-04-10.27399 1.000E-05 14:35:13.950 1.500E-01 0.500 F 0.159 0.947 -03° 28' 36.70" 1.000E-01 0.500 F 0.112 -0.119 o 691 1.93 Yes No
2019GO4 O C K 2019-04-10.27716 1.000E-05 14:35:17.650 1.500E-01 0.500 F 0.159 -0.619 -03° 28' 26.80" 1.000E-01 0.500 F 0.112 0.102 19.5 R 0.70 0.29 o 691 1.27 Yes Yes
2019GO4 O C K 2019-04-10.28032 1.000E-05 14:35:21.500 1.500E-01 0.500 F 0.159 0.170 -03° 28' 17.40" 1.000E-01 0.500 F 0.112 -0.170 19.5 R 0.70 0.29 o 691 0.48 Yes Yes
2019FH1 O C K 2019-04-10.30008 1.000E-05 14:57:47.210 1.500E-01 0.500 F 0.073 0.378 +18° 20' 06.90" 1.000E-01 0.500 F 0.218 -0.361 20.4 R 0.70 0.58 o 691 1.06 Yes Yes
2019FU2 O C K 2019-04-10.30346 1.000E-05 14:42:07.850 1.500E-01 0.500 F 0.101 0.110 +18° 48' 51.40" 1.000E-01 0.500 F 0.244 -0.132 20.4 R 0.70 -0.06 o 691 0.35 Yes Yes
2019FB3 O C K 2019-04-10.30843 1.000E-05 16:09:37.200 1.500E-01 0.500 F 0.122 0.173 -06° 16' 41.40" 1.000E-01 0.500 F 0.258 -0.225 18.6 R 0.70 0.09 o 691 0.59 Yes Yes
2019FH1 O C K 2019-04-10.31164 1.000E-05 14:57:51.940 1.500E-01 0.500 F 0.073 -0.244 +18° 18' 52.50" 1.000E-01 0.500 F 0.218 -0.116 19.8 R 0.70 -0.02 o 691 0.55 Yes Yes
2019FU2 O C K 2019-04-10.31503 1.000E-05 14:42:06.650 1.500E-01 0.500 F 0.101 -0.049 +18° 50' 00.00" 1.000E-01 0.500 F 0.244 -0.095 20.4 R 0.70 -0.07 o 691 0.22 Yes Yes
2019FB3 O C K 2019-04-10.31994 1.000E-05 16:10:08.420 1.500E-01 0.500 F 0.122 0.311 -06° 14' 27.10" 1.000E-01 0.500 F 0.258 -0.226 18.4 R 0.70 -0.11 o 691 0.80 Yes Yes
2019FH1 O C K 2019-04-10.32317 1.000E-05 14:57:56.680 1.500E-01 0.500 F 0.073 -0.171 +18° 17' 37.80" 1.000E-01 0.500 F 0.218 -0.094 20.4 R 0.70 0.58 o 691 0.40 Yes Yes
2019FB3 O C K 2019-04-10.33144 1.000E-05 16:10:39.650 1.500E-01 0.500 F 0.122 0.568 -06° 12' 12.20" 1.000E-01 0.500 F 0.258 -0.083 18.6 R 0.70 0.09 o 691 1.19 Yes Yes
2019FV2 O C K 2019-04-10.37071 1.000E-05 15:01:09.520 1.500E-01 0.500 F 0.300 0.475 -31° 31' 52.30" 1.000E-01 0.500 F 0.363 -0.869 19.2 R 0.70 -0.07 o 691 2.00 Yes Yes
2019FV2 O C K 2019-04-10.37920 1.000E-05 15:01:08.540 1.500E-01 0.500 F 0.300 -0.569 -31° 32' 44.70" 1.000E-01 0.500 F 0.363 0.135 19.3 R 0.70 0.03 o 691 1.18 Yes Yes
2019FV2 O C K 2019-04-10.38747 1.000E-05 15:01:07.670 1.500E-01 0.500 F 0.300 -0.475 -31° 33' 36.40" 1.000E-01 0.500 F 0.363 0.219 19.4 R 0.70 0.13 o 691 1.06 Yes Yes
2019GF1 O C K 2019-04-10.42082 1.000E-05 13:57:30.020 1.500E-01 0.500 F 0.130 0.385 -21° 16' 03.30" 1.000E-01 0.500 F -0.037 0.024 20.7 R 0.70 0.89 o 691 0.78 Yes Yes
2019FY O C H 2019-04-10.43093 1.000E-05 12:41:07.190 1.500E-01 0.500 F 0.196 -0.217 -03° 02' 34.00" 1.000E-01 0.500 F 0.199 -0.045 18.5 R 0.70 0.01 o 691 0.44 Yes Yes
2019GF1 O C K 2019-04-10.43756 1.000E-05 13:57:23.630 1.500E-01 0.500 F 0.130 -0.266 -21° 17' 15.60" 1.000E-01 0.500 F -0.037 -0.186 20.1 R 0.70 0.29 o 691 0.66 Yes Yes
2019FY O C H 2019-04-10.44018 1.000E-05 12:41:09.680 1.500E-01 0.500 F 0.196 0.224 -03° 01' 56.50" 1.000E-01 0.500 F 0.199 0.163 18.5 R 0.70 0.01 o 691 0.56 Yes Yes
2019FY O C H 2019-04-10.44951 1.000E-05 12:41:12.180 1.500E-01 0.500 F 0.196 0.280 -03° 01' 18.80" 1.000E-01 0.500 F 0.199 0.213 19.0 R 0.70 0.51 o 691 0.71 Yes Yes
2019GR O C K 2019-04-10.45784 1.000E-05 13:38:12.520 1.500E-01 0.500 F 0.125 0.401 +03° 30' 09.70" 1.000E-01 0.500 F 0.046 -0.242 18.8 R 0.70 0.35 o 691 0.97 Yes Yes
2019GJ19 O C K 2019-04-10.46004 1.000E-05 14:35:35.020 1.500E-01 0.500 F 0.167 1.187 -05° 26' 46.60" 1.000E-01 0.500 F 0.026 0.700 20.2 R 0.70 0.62 o 691 2.79 Yes Yes
2019GR O C K 2019-04-10.46686 1.000E-05 13:38:24.060 1.500E-01 0.500 F 0.125 -0.714 +03° 28' 48.90" 1.000E-01 0.500 F 0.046 -0.118 18.7 R 0.70 0.25 o 691 1.49 Yes Yes
2019GJ19 O C K 2019-04-10.46902 1.000E-05 14:35:31.100 1.500E-01 0.500 F 0.167 -0.041 -05° 28' 05.10" 1.000E-01 0.500 F 0.026 -0.789 19.7 R 0.70 0.12 o 691 1.60 Yes Yes
2019GM O C K 2019-04-10.49191 1.000E-05 13:59:09.510 1.500E-01 0.500 F 0.340 0.067 +02° 47' 28.00" 1.000E-01 0.500 F 0.212 -0.374 20.9 R 0.70 0.71 o 691 0.79 Yes Yes
2019GM O C K 2019-04-10.49701 1.000E-05 13:59:12.600 1.500E-01 0.500 F 0.340 0.187 +02° 47' 31.20" 1.000E-01 0.500 F 0.212 0.410 20.6 R 0.70 0.41 o 691 0.92 Yes Yes
2019GC6 O C K 2019-04-11.23527 1.000E-05 12:53:41.530 1.500E-01 0.500 F 0.396 -0.203 -10° 30' 40.70" 1.000E-01 0.500 F 0.024 0.286 18.4 R 0.70 0.04 o 691 0.70 Yes Yes
2019GC6 O C K 2019-04-11.23784 1.000E-05 12:53:41.020 1.500E-01 0.500 F 0.396 -0.226 -10° 30' 46.30" 1.000E-01 0.500 F 0.024 0.003 18.5 R 0.70 0.14 o 691 0.45 Yes Yes
2019GC6 O C K 2019-04-11.24041 1.000E-05 12:53:40.530 1.500E-01 0.500 F 0.396 0.083 -10° 30' 51.70" 1.000E-01 0.500 F 0.024 -0.093 18.5 R 0.70 0.14 o 691 0.25 Yes Yes
2019GD1 O C K 2019-04-11.24764 1.000E-05 13:42:26.440 1.500E-01 0.500 F 0.244 -0.211 -09° 44' 49.40" 1.000E-01 0.500 F 0.097 -0.028 21.7 R 0.70 0.46 o 691 0.43 Yes Yes
2019GD1 O C K 2019-04-11.25441 1.000E-05 13:42:25.540 1.500E-01 0.500 F 0.244 -0.390 -09° 44' 43.50" 1.000E-01 0.500 F 0.097 0.159 21.5 R 0.70 0.26 o 691 0.85 Yes Yes
2019GD1 O C K 2019-04-11.26117 1.000E-05 13:42:24.670 1.500E-01 0.500 F 0.244 -0.139 -09° 44' 37.50" 1.000E-01 0.500 F 0.097 0.452 21.9 R 0.70 0.66 o 691 0.95 Yes Yes
2019GZ19 O C K 2019-04-11.29278 1.000E-05 14:17:09.420 1.500E-01 0.500 F 0.348 -0.008 -26° 33' 19.00" 1.000E-01 0.500 F 0.359 -0.174 21.1 R 0.70 0.38 o 691 0.35 Yes Yes
2019GZ19 O C K 2019-04-11.30038 1.000E-05 14:17:08.930 1.500E-01 0.500 F 0.348 0.304 -26° 33' 03.30" 1.000E-01 0.500 F 0.359 -0.009 20.9 R 0.70 0.18 o 691 0.61 Yes Yes
2019GZ19 O C K 2019-04-11.30798 1.000E-05 14:17:08.410 1.500E-01 0.500 F 0.348 0.222 -26° 32' 47.50" 1.000E-01 0.500 F 0.359 0.244 20.8 R 0.70 0.08 o 691 0.66 Yes Yes
2000GT127 O C K 2019-04-11.31550 1.000E-05 14:38:34.980 1.500E-01 0.500 F 0.335 0.112 -26° 05' 39.40" 1.000E-01 0.500 F 0.358 -0.360 20.4 R 0.70 -0.58 o 691 0.78 Yes Yes
2000GT127 O C K 2019-04-11.32413 1.000E-05 14:38:34.920 1.500E-01 0.500 F 0.335 -0.306 -26° 06' 07.90" 1.000E-01 0.500 F 0.358 -0.100 21.1 R 0.70 0.12 o 691 0.66 Yes Yes
2000GT127 O C K 2019-04-11.33276 1.000E-05 14:38:34.910 1.500E-01 0.500 F 0.335 -0.030 -26° 06' 36.50" 1.000E-01 0.500 F 0.358 0.032 21.0 R 0.70 0.02 o 691 0.09 Yes Yes
2019GX19 O C K 2019-04-11.34199 1.000E-05 16:08:42.270 1.500E-01 0.500 F -0.044 -0.456 -15° 06' 08.70" 1.000E-01 0.500 F 0.018 0.041 21.2 R 0.70 0.09 o 691 0.93 Yes Yes
2019GX19 O C K 2019-04-11.35006 1.000E-05 16:08:41.920 1.500E-01 0.500 F -0.044 0.209 -15° 05' 50.90" 1.000E-01 0.500 F 0.018 0.087 21.1 R 0.70 -0.01 o 691 0.46 Yes Yes
2019GX19 O C K 2019-04-11.35813 1.000E-05 16:08:41.510 1.500E-01 0.500 F -0.044 0.022 -15° 05' 33.80" 1.000E-01 0.500 F 0.018 -0.574 21.1 R 0.70 -0.01 o 691 1.16 Yes Yes
2019GG20 O C K 2019-04-11.37173 1.000E-05 14:07:47.760 1.500E-01 0.500 F 0.185 -0.148 +21° 15' 52.70" 1.000E-01 0.500 F 0.362 -0.230 21.1 R 0.70 -0.04 o 691 0.55 Yes Yes
2019GG20 O C K 2019-04-11.38256 1.000E-05 14:07:46.730 1.500E-01 0.500 F 0.185 -0.044 +21° 15' 59.60" 1.000E-01 0.500 F 0.362 0.387 20.9 R 0.70 -0.24 o 691 0.79 Yes Yes
2019GG20 O C K 2019-04-11.39341 1.000E-05 14:07:45.690 1.500E-01 0.500 F 0.185 -0.064 +21° 16' 05.40" 1.000E-01 0.500 F 0.362 -0.085 21.3 R 0.70 0.16 o 691 0.21 Yes Yes
2019GL19 O C K 2019-04-11.40903 1.000E-05 14:12:06.020 1.500E-01 0.500 F 0.208 -0.142 +01° 59' 12.00" 1.000E-01 0.500 F 0.203 -0.059 20.3 R 0.70 0.09 o 691 0.31 Yes Yes
2019GL19 O C K 2019-04-11.41614 1.000E-05 14:12:05.970 1.500E-01 0.500 F 0.208 -0.251 +01° 58' 53.60" 1.000E-01 0.500 F 0.203 -0.175 20.7 R 0.70 0.49 o 691 0.62 Yes Yes
2019GL19 O C K 2019-04-11.42318 1.000E-05 14:12:05.950 1.500E-01 0.500 F 0.208 0.062 +01° 58' 35.90" 1.000E-01 0.500 F 0.203 0.234 o 691 0.49 Yes No
2019GM19 O C K 2019-04-11.44807 1.000E-05 14:47:28.510 1.500E-01 0.500 F 0.126 -0.055 +14° 17' 39.90" 1.000E-01 0.500 F 0.244 -0.573 21.4 R 0.70 0.26 o 691 1.17 Yes Yes
2019GM19 O C K 2019-04-11.45753 1.000E-05 14:47:27.300 1.500E-01 0.500 F 0.126 0.107 +14° 17' 20.60" 1.000E-01 0.500 F 0.244 -0.252 o 691 0.55 Yes No
2019FC3 O C K 2019-04-11.47998 1.000E-05 15:50:11.990 1.500E-01 0.500 F 0.206 0.349 -26° 51' 54.90" 1.000E-01 0.500 F 0.452 0.479 o 691 1.21 Yes No
2019FC3 O C K 2019-04-11.48566 1.000E-05 15:50:16.970 1.500E-01 0.500 F 0.206 1.353 -26° 52' 25.10" 1.000E-01 0.500 F 0.452 0.150 o 691 2.80 Yes No
2019GR O C K 2019-04-11.49498 1.000E-05 14:00:53.070 1.500E-01 0.500 F 0.350 0.120 +00° 59' 42.80" 1.000E-01 0.500 F 0.325 0.101 18.9 R 0.70 0.33 o 691 0.32 Yes Yes
2019GR O C K 2019-04-11.49705 1.000E-05 14:00:55.580 1.500E-01 0.500 F 0.350 0.183 +00° 59' 25.40" 1.000E-01 0.500 F 0.325 0.243 19.0 R 0.70 0.43 o 691 0.62 Yes Yes
2019GR O C K 2019-04-11.49912 1.000E-05 14:00:58.050 1.500E-01 0.500 F 0.350 -0.382 +00° 59' 07.60" 1.000E-01 0.500 F 0.325 -0.017 19.0 R 0.70 0.43 o 691 0.79 Yes Yes
2019GC20 O C K 2019-04-13.25200 1.000E-05 13:22:00.160 1.500E-01 0.500 F 0.135 -0.684 -14° 48' 16.10" 1.000E-01 0.500 F 0.035 0.089 21.8 R 0.70 0.43 o 691 1.42 Yes Yes
2019GC20 O C K 2019-04-13.29984 1.000E-05 13:21:49.200 1.500E-01 0.500 F 0.135 -0.253 -14° 49' 17.20" 1.000E-01 0.500 F 0.035 -0.161 22.0 R 0.70 0.63 o 691 0.63 Yes Yes
2019GC20 O C K 2019-04-13.34779 1.000E-05 13:21:38.220 1.500E-01 0.500 F 0.135 0.350 -14° 50' 17.40" 1.000E-01 0.500 F 0.035 0.180 o 691 0.82 Yes No
2019AW11 O C K 2019-04-13.40254 1.000E-05 16:55:30.180 1.500E-01 0.500 F -0.032 -0.249 -14° 44' 05.10" 1.000E-01 0.500 F 0.362 0.000 21.8 R 0.70 0.50 o 691 0.53 Yes Yes
2019AW11 O C K 2019-04-13.41907 1.000E-05 16:55:30.100 1.500E-01 0.500 F -0.032 -0.156 -14° 44' 13.90" 1.000E-01 0.500 F 0.362 -0.102 21.3 R 0.70 0.00 o 691 0.39 Yes Yes
2019AW11 O C K 2019-04-13.43559 1.000E-05 16:55:30.030 1.500E-01 0.500 F -0.032 0.175 -14° 44' 22.50" 1.000E-01 0.500 F 0.362 -0.091 o 691 0.41 Yes No
2001HC O C 2019-04-13.44748 1.000E-05 16:25:00.030 1.500E-01 0.500 F -0.052 0.040 -11° 58' 08.50" 1.000E-01 0.500 F 0.276 0.022 17.0 V 0.70 -0.09 o 691 0.09 Yes Yes
2004UU1 O C K 2019-04-13.44884 1.000E-05 16:21:44.200 1.500E-01 0.500 F 0.325 0.037 -27° 25' 14.00" 1.000E-01 0.500 F 0.312 0.062 21.5 R 0.70 0.90 o 691 0.15 Yes Yes
2000EA14 O C K 2019-04-13.45562 1.000E-05 16:19:02.310 1.500E-01 0.500 F 0.093 -0.037 -19° 07' 22.90" 1.000E-01 0.500 F 0.139 0.073 21.3 R 0.70 0.51 o 691 0.16 Yes Yes
2001HC O C 2019-04-13.46091 1.000E-05 16:24:52.000 1.500E-01 0.500 F -0.052 0.017 -11° 59' 00.70" 1.000E-01 0.500 F 0.276 0.084 17.2 V 0.70 0.11 o 691 0.17 Yes Yes
2004UU1 O C K 2019-04-13.46221 1.000E-05 16:21:44.890 1.500E-01 0.500 F 0.325 0.310 -27° 24' 29.00" 1.000E-01 0.500 F 0.312 0.402 21.6 R 0.70 1.00 o 691 1.02 Yes Yes
2000EA14 O C K 2019-04-13.46898 1.000E-05 16:19:01.700 1.500E-01 0.500 F 0.093 0.354 -19° 07' 14.50" 1.000E-01 0.500 F 0.139 0.315 o 691 0.95 Yes No
2001HC O C 2019-04-13.47427 1.000E-05 16:24:44.010 1.500E-01 0.500 F -0.052 -0.031 -11° 59' 52.70" 1.000E-01 0.500 F 0.276 0.010 17.5 V 0.70 0.41 o 691 0.07 Yes Yes
2004UU1 O C K 2019-04-13.47557 1.000E-05 16:21:45.530 1.500E-01 0.500 F 0.325 -0.094 -27° 23' 44.00" 1.000E-01 0.500 F 0.312 0.679 21.2 R 0.70 0.60 o 691 1.38 Yes Yes
2000EA14 O C K 2019-04-13.48234 1.000E-05 16:19:01.060 1.500E-01 0.500 F 0.093 0.303 -19° 07' 06.70" 1.000E-01 0.500 F 0.139 -0.088 21.9 R 0.70 1.11 o 691 0.63 Yes Yes
2019GC6 O C K 2019-04-14.17542 1.000E-05 12:48:58.260 1.500E-01 0.500 F 0.160 -0.052 -13° 11' 34.00" 1.000E-01 0.500 F 0.159 0.072 17.4 R 0.70 0.04 o 691 0.18 Yes Yes
2019GC6 O C K 2019-04-14.17903 1.000E-05 12:48:56.950 1.500E-01 0.500 F 0.160 -0.064 -13° 11' 56.30" 1.000E-01 0.500 F 0.159 -0.088 17.4 R 0.70 0.04 o 691 0.22 Yes Yes
2019FY O C 2019-04-14.18541 1.000E-05 13:02:14.180 1.500E-01 0.500 F 0.284 -0.358 +01° 51' 16.50" 1.000E-01 0.500 F 0.404 0.192 19.1 V 0.70 0.46 o 691 0.82 Yes Yes
2019FY O C 2019-04-14.18996 1.000E-05 13:02:15.890 1.500E-01 0.500 F 0.284 0.028 +01° 51' 41.00" 1.000E-01 0.500 F 0.404 -0.131 19.1 V 0.70 0.46 o 691 0.27 Yes Yes
2019FY O C 2019-04-14.19450 1.000E-05 13:02:17.530 1.500E-01 0.500 F 0.284 -0.553 +01° 52' 05.70" 1.000E-01 0.500 F 0.404 -0.207 18.8 V 0.70 0.16 o 691 1.19 Yes Yes
2011HP O C K 2019-04-14.20944 1.000E-05 13:57:50.310 1.500E-01 0.500 F 0.093 0.162 -19° 37' 58.40" 1.000E-01 0.500 F -0.135 -0.063 20.3 R 0.70 0.21 o 691 0.35 Yes Yes
2011HP O C K 2019-04-14.22035 1.000E-05 13:57:50.510 1.500E-01 0.500 F 0.093 0.495 -19° 37' 57.70" 1.000E-01 0.500 F -0.135 0.404 20.2 R 0.70 0.12 o 691 1.28 Yes Yes
2019GD O C K 2019-04-14.29169 1.000E-05 14:16:55.400 1.500E-01 0.500 F 0.115 -0.191 +21° 33' 01.70" 1.000E-01 0.500 F 0.290 0.391 19.4 R 0.70 -0.05 o 691 0.88 Yes Yes
2019GD O C K 2019-04-14.29566 1.000E-05 14:16:56.710 1.500E-01 0.500 F 0.115 0.417 +21° 32' 46.00" 1.000E-01 0.500 F 0.290 -0.627 19.3 R 0.70 -0.15 o 691 1.52 Yes Yes
2019GD O C K 2019-04-14.29962 1.000E-05 14:16:57.930 1.500E-01 0.500 F 0.115 -0.173 +21° 32' 32.20" 1.000E-01 0.500 F 0.290 0.237 19.2 R 0.70 -0.25 o 691 0.59 Yes Yes
2016JE O C K 2019-04-14.37361 1.000E-05 15:28:31.510 1.500E-01 0.500 F 0.183 -0.305 +22° 09' 40.40" 1.000E-01 0.500 F 0.172 -0.177 20.1 R 0.70 0.02 o 691 0.74 Yes Yes
2016JE O C K 2019-04-14.39224 1.000E-05 15:28:23.570 1.500E-01 0.500 F 0.183 0.197 +22° 09' 40.90" 1.000E-01 0.500 F 0.172 0.283 20.2 R 0.70 0.12 o 691 0.71 Yes Yes
2001HC O C K 2019-04-14.40800 1.000E-05 16:15:35.100 1.500E-01 0.500 F -0.042 0.026 -13° 00' 23.20" 1.000E-01 0.500 F 0.105 0.157 16.8 R 0.70 0.19 o 691 0.32 Yes Yes
2001HC O C K 2019-04-14.41161 1.000E-05 16:15:32.880 1.500E-01 0.500 F -0.042 0.033 -13° 00' 37.20" 1.000E-01 0.500 F 0.105 0.160 16.9 R 0.70 0.29 o 691 0.33 Yes Yes
2001HC O C K 2019-04-14.41523 1.000E-05 16:15:30.650 1.500E-01 0.500 F -0.042 -0.010 -13° 00' 51.30" 1.000E-01 0.500 F 0.105 0.096 16.7 R 0.70 0.09 o 691 0.20 Yes Yes
2015FV118 O C K 2019-04-14.42226 1.000E-05 15:37:52.360 1.500E-01 0.500 F 0.321 0.013 +09° 12' 36.10" 1.000E-01 0.500 F 0.243 0.050 20.2 R 0.70 0.13 o 691 0.11 Yes Yes
2015FV118 O C K 2019-04-14.42588 1.000E-05 15:37:51.770 1.500E-01 0.500 F 0.321 -0.515 +09° 12' 47.50" 1.000E-01 0.500 F 0.243 0.108 19.6 R 0.70 -0.47 o 691 1.06 Yes Yes
2015FV118 O C K 2019-04-14.42950 1.000E-05 15:37:51.250 1.500E-01 0.500 F 0.321 -0.007 +09° 12' 58.60" 1.000E-01 0.500 F 0.243 -0.134 19.9 R 0.70 -0.17 o 691 0.27 Yes Yes
2019GM21 O C K 2019-04-14.43867 1.000E-05 16:22:25.350 1.500E-01 0.500 F 0.077 0.852 -04° 04' 16.20" 1.000E-01 0.500 F 0.285 -0.111 20.5 R 0.70 -0.09 o 691 1.76 Yes Yes
2019GM21 O C K 2019-04-14.44520 1.000E-05 16:22:27.140 1.500E-01 0.500 F 0.077 -0.084 -04° 04' 45.00" 1.000E-01 0.500 F 0.285 0.215 20.9 R 0.70 0.31 o 691 0.47 Yes Yes
2019GM21 O C K 2019-04-14.45175 1.000E-05 16:22:28.940 1.500E-01 0.500 F 0.077 -0.967 -04° 05' 14.70" 1.000E-01 0.500 F 0.285 -0.266 20.3 R 0.70 -0.29 o 691 2.05 Yes Yes
2019FH1 O C K 2019-04-14.46596 1.000E-05 15:29:25.010 1.500E-01 0.500 F 0.133 -0.335 +10° 15' 18.90" 1.000E-01 0.500 F 0.153 0.574 o 691 1.34 Yes No
2019FH1 O C K 2019-04-14.46924 1.000E-05 15:29:26.250 1.500E-01 0.500 F 0.133 -0.223 +10° 14' 54.60" 1.000E-01 0.500 F 0.153 0.246 20.1 R 0.70 0.33 o 691 0.67 Yes Yes
2019FH1 O C K 2019-04-14.47250 1.000E-05 15:29:27.480 1.500E-01 0.500 F 0.133 -0.178 +10° 14' 30.60" 1.000E-01 0.500 F 0.153 0.082 19.9 R 0.70 0.13 o 691 0.40 Yes Yes
2019FG1 O C K 2019-04-14.48078 1.000E-05 14:03:22.590 1.500E-01 0.500 F 0.175 -0.039 +19° 50' 39.70" 1.000E-01 0.500 F 0.348 0.327 20.0 R 0.70 0.69 o 691 0.67 Yes Yes
2019FG1 O C K 2019-04-14.48406 1.000E-05 14:03:23.080 1.500E-01 0.500 F 0.175 0.276 +19° 50' 17.90" 1.000E-01 0.500 F 0.348 -0.104 19.9 R 0.70 0.59 o 691 0.60 Yes Yes
2019FG1 O C K 2019-04-14.48734 1.000E-05 14:03:23.500 1.500E-01 0.500 F 0.175 -0.418 +19° 49' 56.70" 1.000E-01 0.500 F 0.348 0.072 19.8 R 0.70 0.49 o 691 0.86 Yes Yes
2018VZ9 O C K 2019-04-14.49594 1.000E-05 19:48:26.800 1.500E-01 0.500 F -0.138 0.276 -17° 25' 09.60" 1.000E-01 0.500 F 0.114 0.140 19.9 R 0.70 1.35 o 691 0.62 Yes Yes
2018VZ9 O C K 2019-04-14.49905 1.000E-05 19:48:27.100 1.500E-01 0.500 F -0.138 -0.033 -17° 25' 18.90" 1.000E-01 0.500 F 0.114 0.281 20.5 R 0.70 1.95 o 691 0.57 Yes Yes
2016FF15 O C K 2019-04-15.15826 1.000E-05 13:37:57.010 1.500E-01 0.500 F 0.147 0.003 +11° 01' 49.40" 1.000E-01 0.500 F 0.196 0.217 20.0 R 0.70 0.44 o 691 0.44 Yes Yes
2016FF15 O C K 2019-04-15.16549 1.000E-05 13:37:55.870 1.500E-01 0.500 F 0.147 0.066 +11° 01' 47.00" 1.000E-01 0.500 F 0.196 0.216 19.8 R 0.70 0.24 o 691 0.45 Yes Yes
2016FF15 O C K 2019-04-15.17274 1.000E-05 13:37:54.710 1.500E-01 0.500 F 0.147 -0.104 +11° 01' 44.50" 1.000E-01 0.500 F 0.196 0.125 20.0 R 0.70 0.44 o 691 0.33 Yes Yes
2019GL19 O C 2019-04-15.18284 1.000E-05 14:12:16.030 1.500E-01 0.500 F 0.117 0.010 -00° 54' 28.00" 1.000E-01 0.500 F 0.216 -0.465 o 691 0.94 Yes No
2019GL19 O C 2019-04-15.19681 1.000E-05 14:12:15.920 1.500E-01 0.500 F 0.117 0.015 -00° 55' 08.80" 1.000E-01 0.500 F 0.216 0.051 o 691 0.11 Yes No
2019GL19 O C 2019-04-15.20924 1.000E-05 14:12:15.790 1.500E-01 0.500 F 0.117 -0.310 -00° 55' 45.40" 1.000E-01 0.500 F 0.216 0.228 o 691 0.78 Yes No
2015FV118 O C K 2019-04-15.35833 1.000E-05 15:35:34.990 1.500E-01 0.500 F 0.251 -0.246 +10° 02' 41.70" 1.000E-01 0.500 F 0.259 0.438 20.9 R 0.70 0.91 o 691 1.01 Yes Yes
2015FV118 O C K 2019-04-15.36556 1.000E-05 15:35:33.810 1.500E-01 0.500 F 0.251 0.026 +10° 03' 05.10" 1.000E-01 0.500 F 0.259 0.030 20.4 R 0.70 0.41 o 691 0.08 Yes Yes
2015FV118 O C K 2019-04-15.37280 1.000E-05 15:35:32.580 1.500E-01 0.500 F 0.251 -0.394 +10° 03' 28.60" 1.000E-01 0.500 F 0.259 -0.309 20.7 R 0.70 0.71 o 691 1.01 Yes Yes
2019GJ5 O C K 2019-04-15.38280 1.000E-05 17:26:25.400 1.500E-01 0.500 F -0.036 -0.142 +13° 12' 16.40" 1.000E-01 0.500 F 0.154 0.079 20.6 R 0.70 0.22 o 691 0.33 Yes Yes
2019GJ5 O C K 2019-04-15.39075 1.000E-05 17:26:26.830 1.500E-01 0.500 F -0.036 0.036 +13° 12' 15.80" 1.000E-01 0.500 F 0.154 -0.198 20.8 R 0.70 0.42 o 691 0.40 Yes Yes
2019GJ5 O C K 2019-04-15.39867 1.000E-05 17:26:28.230 1.500E-01 0.500 F -0.020 -0.148 +13° 12' 15.80" 1.000E-01 0.500 F 0.173 0.114 20.4 R 0.70 0.02 o 691 0.38 Yes Yes
2019GP3 O C K 2019-04-15.41900 1.000E-05 14:11:14.650 1.500E-01 0.500 F 0.286 -0.052 -07° 51' 56.80" 1.000E-01 0.500 F 0.128 -0.679 19.8 R 0.70 -0.67 o 691 1.37 Yes Yes
2019GP3 O C K 2019-04-15.42365 1.000E-05 14:11:14.230 1.500E-01 0.500 F 0.286 -0.028 -07° 51' 50.20" 1.000E-01 0.500 F 0.128 0.370 20.5 R 0.70 0.03 o 691 0.75 Yes Yes
2019GP3 O C K 2019-04-15.42832 1.000E-05 14:11:13.840 1.500E-01 0.500 F 0.286 0.462 -07° 51' 44.60" 1.000E-01 0.500 F 0.128 0.395 20.5 R 0.70 0.03 o 691 1.23 Yes Yes
2019GD3 O C K 2019-04-15.43611 1.000E-05 14:59:55.380 1.500E-01 0.500 F 0.129 0.043 -02° 50' 25.10" 1.000E-01 0.500 F 0.169 0.035 20.5 R 0.70 0.37 o 691 0.10 Yes Yes
2019GD3 O C K 2019-04-15.44077 1.000E-05 14:59:55.510 1.500E-01 0.500 F 0.129 0.083 -02° 50' 19.10" 1.000E-01 0.500 F 0.169 0.512 20.1 R 0.70 -0.03 o 691 1.04 Yes Yes
2019GD3 O C K 2019-04-15.44542 1.000E-05 14:59:55.620 1.500E-01 0.500 F 0.129 -0.178 -02° 50' 13.90" 1.000E-01 0.500 F 0.169 0.200 20.0 R 0.70 -0.13 o 691 0.55 Yes Yes
2015JD1 O C K 2019-04-15.45164 1.000E-05 15:22:10.850 1.500E-01 0.500 F 0.437 0.054 -27° 28' 22.90" 1.000E-01 0.500 F 0.305 0.309 20.2 R 0.70 0.08 o 691 0.63 Yes Yes
2015JD1 O C K 2019-04-15.45941 1.000E-05 15:22:10.510 1.500E-01 0.500 F 0.437 0.356 -27° 28' 07.30" 1.000E-01 0.500 F 0.305 0.852 19.8 R 0.70 -0.32 o 691 1.85 Yes Yes
2015JD1 O C K 2019-04-15.46718 1.000E-05 15:22:10.140 1.500E-01 0.500 F 0.437 0.244 -27° 27' 53.10" 1.000E-01 0.500 F 0.305 -0.028 20.2 R 0.70 0.08 o 691 0.49 Yes Yes
2019ED2 O C K 2019-04-15.47785 1.000E-05 15:20:12.570 1.500E-01 0.500 F 0.096 -0.049 -00° 14' 16.30" 1.000E-01 0.500 F 0.260 0.235 20.0 R 0.70 -0.32 o 691 0.49 Yes Yes
2019ED2 O C K 2019-04-15.48095 1.000E-05 15:20:12.790 1.500E-01 0.500 F 0.096 0.076 -00° 14' 11.70" 1.000E-01 0.500 F 0.260 0.149 19.8 R 0.70 -0.52 o 691 0.34 Yes Yes
2019ED2 O C K 2019-04-15.48406 1.000E-05 15:20:12.990 1.500E-01 0.500 F 0.096 -0.120 -00° 14' 06.50" 1.000E-01 0.500 F 0.260 0.648 19.4 R 0.70 -0.92 o 691 1.35 Yes Yes
2018XG5 O C K 2019-04-16.14103 1.000E-05 05:50:58.940 1.500E-01 0.500 F -0.082 0.076 -01° 03' 02.00" 1.000E-01 0.500 F 0.015 -0.388 19.9 R 0.70 0.24 o 691 0.79 Yes Yes
2018XG5 O C K 2019-04-16.14826 1.000E-05 05:51:01.070 1.500E-01 0.500 F -0.082 0.121 -01° 02' 47.60" 1.000E-01 0.500 F 0.015 -0.252 20.9 R 0.70 1.24 o 691 0.56 Yes Yes
2019GS19 O C K 2019-04-16.26663 1.000E-05 14:19:34.500 1.500E-01 0.500 F 0.396 0.061 -23° 46' 36.20" 1.000E-01 0.500 F 0.224 0.006 19.4 R 0.70 0.20 o 691 0.12 Yes Yes
2019GS19 O C K 2019-04-16.27265 1.000E-05 14:19:32.590 1.500E-01 0.500 F 0.396 0.144 -23° 47' 00.90" 1.000E-01 0.500 F 0.224 -0.099 19.6 R 0.70 0.40 o 691 0.35 Yes Yes
2019GS19 O C K 2019-04-16.27868 1.000E-05 14:19:30.660 1.500E-01 0.500 F 0.396 0.049 -23° 47' 24.80" 1.000E-01 0.500 F 0.224 0.477 19.5 R 0.70 0.30 o 691 0.98 Yes Yes
2019GG1 O C K 2019-04-16.31977 1.000E-05 14:20:59.560 1.500E-01 0.500 F 0.437 -0.134 -18° 17' 40.20" 1.000E-01 0.500 F 0.135 -0.547 19.3 R 0.70 0.07 o 691 1.13 Yes Yes
2019GG1 O C K 2019-04-16.32358 1.000E-05 14:20:59.710 1.500E-01 0.500 F 0.437 -0.498 -18° 17' 44.80" 1.000E-01 0.500 F 0.135 -0.054 19.1 R 0.70 -0.13 o 691 1.01 Yes Yes
2019GG1 O C K 2019-04-16.32737 1.000E-05 14:20:59.910 1.500E-01 0.500 F 0.437 -0.134 -18° 17' 49.80" 1.000E-01 0.500 F 0.135 0.007 19.2 R 0.70 -0.03 o 691 0.27 Yes Yes
2001HC O C K 2019-04-16.33346 1.000E-05 15:55:57.830 1.500E-01 0.500 F -0.037 0.053 -15° 02' 45.40" 1.000E-01 0.500 F 0.115 0.281 16.6 R 0.70 0.15 o 691 0.58 Yes Yes
2001HC O C K 2019-04-16.33674 1.000E-05 15:55:55.730 1.500E-01 0.500 F -0.037 0.115 -15° 02' 57.80" 1.000E-01 0.500 F 0.115 0.227 16.5 R 0.70 0.05 o 691 0.51 Yes Yes
2001HC O C K 2019-04-16.34001 1.000E-05 15:55:53.630 1.500E-01 0.500 F -0.037 0.093 -15° 03' 10.20" 1.000E-01 0.500 F 0.115 0.131 16.6 R 0.70 0.15 o 691 0.32 Yes Yes
2018VZ9 O C 2019-04-16.43319 1.000E-05 19:51:57.140 1.500E-01 0.500 F -0.051 -0.584 -19° 01' 36.80" 1.000E-01 0.500 F 0.089 0.393 19.5 V 0.70 0.55 o 691 1.42 Yes Yes
2018VZ9 O C 2019-04-16.43802 1.000E-05 19:51:57.660 1.500E-01 0.500 F -0.051 -0.134 -19° 01' 51.60" 1.000E-01 0.500 F 0.089 0.005 20.0 V 0.70 1.05 o 691 0.27 Yes Yes
2018VZ9 O C 2019-04-16.44285 1.000E-05 19:51:58.140 1.500E-01 0.500 F -0.051 -0.238 -19° 02' 05.90" 1.000E-01 0.500 F 0.089 0.112 19.4 V 0.70 0.45 o 691 0.53 Yes Yes
2002RV25 O C 2019-04-22.28892 1.000E-05 12:21:01.540 1.500E-01 0.500 F 0.343 -0.294 -00° 39' 05.90" 1.000E-01 0.500 F 0.103 -0.010 o 691 0.59 Yes No
2019GF20 O C 2019-04-22.29343 1.000E-05 12:51:06.020 1.500E-01 0.500 F 0.215 0.017 +16° 56' 47.90" 1.000E-01 0.500 F 0.195 -0.008 o 691 0.04 Yes No
2002RV25 O C 2019-04-22.29573 1.000E-05 12:21:00.890 1.500E-01 0.500 F 0.343 -0.330 -00° 39' 09.10" 1.000E-01 0.500 F 0.103 -0.249 o 691 0.83 Yes No
2019GF20 O C 2019-04-22.30023 1.000E-05 12:51:05.600 1.500E-01 0.500 F 0.215 -0.626 +16° 56' 49.60" 1.000E-01 0.500 F 0.195 0.216 o 691 1.35 Yes No
2002RV25 O C 2019-04-22.30253 1.000E-05 12:21:00.240 1.500E-01 0.500 F 0.343 -0.387 -00° 39' 11.80" 1.000E-01 0.500 F 0.103 0.008 o 691 0.77 Yes No
2019GF20 O C 2019-04-22.30704 1.000E-05 12:51:05.230 1.500E-01 0.500 F 0.215 -0.556 +16° 56' 51.10" 1.000E-01 0.500 F 0.195 0.253 o 691 1.24 Yes No
2019GZ6 O C 2019-04-22.35551 1.000E-05 12:09:19.910 1.500E-01 0.500 F 0.329 -0.764 +06° 52' 43.30" 1.000E-01 0.500 F 0.213 -0.114 o 691 1.55 Yes No
2019GZ6 O C 2019-04-22.36792 1.000E-05 12:09:19.170 1.500E-01 0.500 F 0.329 -0.627 +06° 52' 29.00" 1.000E-01 0.500 F 0.213 -0.097 o 691 1.28 Yes No
2019GZ6 O C 2019-04-22.38033 1.000E-05 12:09:18.450 1.500E-01 0.500 F 0.329 -0.285 +06° 52' 14.50" 1.000E-01 0.500 F 0.213 -0.265 o 691 0.78 Yes No
1994PC1 O C 2019-04-22.44090 1.000E-05 21:12:29.160 1.500E-01 0.500 F -0.034 -0.190 +02° 45' 52.90" 1.000E-01 0.500 F 0.289 -0.217 o 691 0.58 Yes No
1994PC1 O C 2019-04-22.44835 1.000E-05 21:12:30.000 1.500E-01 0.500 F -0.034 -0.311 +02° 45' 50.80" 1.000E-01 0.500 F 0.289 -0.139 o 691 0.68 Yes No
1994PC1 O C 2019-04-22.45579 1.000E-05 21:12:30.850 1.500E-01 0.500 F -0.034 -0.252 +02° 45' 48.60" 1.000E-01 0.500 F 0.289 -0.164 o 691 0.60 Yes No
2019HL O C K 2019-04-24.18234 1.000E-05 08:40:49.110 1.500E-01 0.500 F 0.227 0.175 -24° 00' 22.70" 1.000E-01 0.500 F -0.030 -0.327 o 691 0.76 Yes No
2019HL O C K 2019-04-24.19134 1.000E-05 08:40:49.090 1.500E-01 0.500 F 0.227 -0.265 -24° 00' 28.20" 1.000E-01 0.500 F -0.030 0.179 19.0 R 0.70 -1.33 o 691 0.65 Yes Yes
2019GP5 O C K 2019-04-24.21181 1.000E-05 11:55:12.280 1.500E-01 0.500 F 0.308 0.433 -24° 53' 16.50" 1.000E-01 0.500 F 0.303 0.463 20.8 R 0.70 0.31 o 691 1.30 Yes Yes
2019GK21 O C K 2019-04-24.21657 1.000E-05 11:05:07.890 1.500E-01 0.500 F 0.114 -0.363 -14° 55' 15.60" 1.000E-01 0.500 F -0.047 0.556 o 691 1.34 Yes No
2019GP5 O C K 2019-04-24.23068 1.000E-05 11:55:14.120 1.500E-01 0.500 F 0.308 -0.006 -24° 53' 36.20" 1.000E-01 0.500 F 0.303 0.272 20.6 R 0.70 0.11 o 691 0.55 Yes Yes
2019GK21 O C K 2019-04-24.23545 1.000E-05 11:05:08.310 1.500E-01 0.500 F 0.114 0.165 -14° 55' 07.80" 1.000E-01 0.500 F -0.047 0.213 o 691 0.54 Yes No
2019GP5 O C K 2019-04-24.24703 1.000E-05 11:55:15.760 1.500E-01 0.500 F 0.308 0.129 -24° 53' 52.80" 1.000E-01 0.500 F 0.303 0.167 20.9 R 0.70 0.41 o 691 0.43 Yes Yes
2019GK21 O C K 2019-04-24.25179 1.000E-05 11:05:08.710 1.500E-01 0.500 F 0.114 0.749 -14° 54' 59.60" 1.000E-01 0.500 F -0.047 1.077 o 691 2.65 Yes No
2019GT1 O C K 2019-04-24.26240 1.000E-05 09:29:58.690 1.500E-01 0.500 F 0.026 0.361 +10° 44' 48.80" 1.000E-01 0.500 F 0.268 -0.743 20.3 R 0.70 -0.44 o 691 1.67 Yes Yes

[1-200] [201-400] [401-600] [601-800] [801-1000] [1001-1200] [1201-1400] [1401-1600] [1601-1800] [1801-2000] [2001-2200] [2201-2400] [2401-2600] [2601-2800] [2801-3000] [3001-3200] [3201-3400] [3401-3600] [3601-3800] [3801-4000] [4001-4200] [4201-4400] [4401-4600] [4601-4800] [4801-5000] [5001-5200] [5201-5400] [5401-5600] [5601-5800] [5801-6000] [6001-6200] [6201-6400] [6401-6600] [6601-6800] [6801-7000] [7001-7200] [7201-7400] [7401-7600] [7601-7800] [7801-8000] [8001-8200] [8201-8400] [8401-8600] [8601-8800] [8801-9000] [9001-9200] [9201-9400] [9401-9600] [9601-9800] [9801-10000] [10001-10200] [10201-10400] [10401-10600] [10601-10800] [10801-11000] [11001-11200] [11201-11400] [11401-11600] [11601-11800] [11801-12000] [12001-12200] [12201-12400] [12401-12600] [12601-12800] [12801-13000] [13001-13200] [13201-13400] [13401-13600] [13601-13800] [13801-14000] [14001-14200] [14201-14400] [14401-14600] [14601-14800] [14801-15000] [15001-15200] [15201-15400] [15401-15600] [15601-15800] [15801-16000] [16001-16200] [16201-16400] [16401-16600] [16601-16800] [16801-17000] [17001-17200] [17201-17400] [17401-17600] [17601-17800] [17801-18000] [18001-18200] [18201-18400] [18401-18600] [18601-18800] [18801-19000] [19001-19200] [19201-19400] [19401-19600] [19601-19800] [19801-20000] [20001-20200] [20201-20400] [20401-20600] [20601-20800] [20801-21000] [21001-21200] [21201-21400] [21401-21600] [21601-21800] [21801-22000] [22001-22200] [22201-22400] [22401-22600] [22601-22800] [22801-23000] [23001-23200] [23201-23400] [23401-23600] [23601-23800] [23801-24000] [24001-24200] [24201-24400] [24401-24600] [24601-24800] [24801-25000] [25001-25200] [25201-25400] [25401-25600] [25601-25800] [25801-26000] [26001-26200] [26201-26400] [26401-26600] [26601-26800] [26801-27000] [27001-27200] [27201-27400] [27401-27600] [27601-27800] [27801-28000] [28001-28200] [28201-28400] [28401-28600] [28601-28800] [28801-29000] [29001-29200] [29201-29400] [29401-29600] [29601-29800] [29801-30000] [30001-30200] [30201-30400] [30401-30600] [30601-30800] [30801-31000] [31001-31200] [31201-31400] [31401-31600] [31601-31800] [31801-32000] [32001-32200] [32201-32400] [32401-32600] [32601-32800] [32801-33000] [33001-33200] [33201-33400] [33401-33600] [33601-33800] [33801-34000] [34001-34200] [34201-34400] [34401-34600] [34601-34800] [34801-35000] [35001-35200] [35201-35400] [35401-35600] [35601-35800] [35801-36000] [36001-36200] [36201-36400] [36401-36600] [36601-36800] [36801-37000] [37001-37200] [37201-37400] [37401-37600] [37601-37800] [37801-38000] [38001-38200] [38201-38400] [38401-38600] [38601-38800] [38801-39000] [39001-39200] [39201-39400] [39401-39600] [39601-39800] [39801-40000] [40001-40200] [40201-40400] [40401-40600] [40601-40800] [40801-41000] [41001-41200] [41201-41400] [41401-41600] [41601-41800] [41801-42000] [42001-42200] [42201-42400] [42401-42600] [42601-42800] [42801-43000] [43001-43200] [43201-43400] [43401-43600] [43601-43800] [43801-44000] [44001-44200] [44201-44400] [44401-44600] [44601-44800] [44801-45000] [45001-45200] [45201-45400] [45401-45600] [45601-45800] [45801-46000] [46001-46200] [46201-46400] [46401-46600] [46601-46800] [46801-47000] [47001-47200] [47201-47400] [47401-47600] [47601-47800] [47801-48000] [48001-48200] [48201-48400] [48401-48600] [48601-48800] [48801-49000] [49001-49200] [49201-49400] [49401-49600] [49601-49800] [49801-50000] [50001-50200] [50201-50388]